Time;durP1;ratioP1;P1;durP2;ratioP2;P2;SDS_P1;SDS_P2;PMS_P1;PMS_P2;Temp;Humidity;BMP_temperature;BMP_pressure;BME280_temperature;BME280_humidity;BME280_pressure;Samples;Min_cycle;Max_cycle;Signal;HPM_P1;HPM_P2
2022/11/12 03:00:33;;;;;;;19.63;18.13;;;4.60;99.90;;;;;;5926213;23;20189;-82
2022/11/12 03:03:19;;;;;;;19.93;18.50;;;4.70;99.90;;;;;;4897797;29;20217;-83
2022/11/12 03:06:04;;;;;;;20.87;19.17;;;4.70;99.90;;;;;;4897944;29;20699;-83
2022/11/12 03:08:50;;;;;;;20.77;19.17;;;4.60;99.90;;;;;;4894216;29;20736;-84
2022/11/12 03:11:35;;;;;;;20.07;18.47;;;4.60;99.90;;;;;;4894362;29;20235;-83
2022/11/12 03:14:21;;;;;;;19.90;18.50;;;4.60;99.90;;;;;;4902986;29;20212;-83
2022/11/12 03:17:08;;;;;;;20.87;19.27;;;4.60;99.90;;;;;;4902513;29;20211;-83
2022/11/12 03:19:53;;;;;;;19.73;18.33;;;4.60;99.90;;;;;;4897901;29;20255;-83
2022/11/12 03:22:41;;;;;;;19.87;18.47;;;4.70;99.90;;;;;;4895858;29;20230;-83
2022/11/12 03:25:27;;;;;;;20.43;18.90;;;4.70;99.90;;;;;;4902015;29;20219;-83
2022/11/12 03:28:15;;;;;;;20.70;19.10;;;4.70;99.90;;;;;;4899737;29;20579;-83
2022/11/12 03:31:01;;;;;;;20.60;19.10;;;4.70;99.90;;;;;;4901818;29;20235;-83
2022/11/12 03:33:48;;;;;;;20.63;19.13;;;4.70;99.90;;;;;;4896893;29;20358;-83
2022/11/12 03:36:33;;;;;;;20.10;18.70;;;4.70;99.90;;;;;;4894473;29;20343;-83
2022/11/12 03:39:19;;;;;;;19.83;18.43;;;4.60;99.90;;;;;;4900941;29;20520;-83
2022/11/12 03:42:05;;;;;;;19.33;17.97;;;4.60;99.90;;;;;;4901826;29;20242;-83
2022/11/12 03:44:50;;;;;;;19.57;18.27;;;4.60;99.90;;;;;;4900778;29;20258;-83
2022/11/12 03:47:36;;;;;;;19.73;18.33;;;4.70;99.90;;;;;;4895059;29;20216;-84
2022/11/12 03:50:25;;;;;;;18.67;17.43;;;4.70;99.90;;;;;;4900917;29;20231;-84
2022/11/12 03:53:11;;;;;;;18.63;17.33;;;4.60;99.90;;;;;;4901374;29;20276;-83
2022/11/12 03:55:57;;;;;;;19.13;17.73;;;4.50;99.90;;;;;;4901516;29;20703;-83
2022/11/12 03:58:42;;;;;;;19.63;18.13;;;4.40;99.90;;;;;;4895790;29;20211;-83
2022/11/12 04:01:28;;;;;;;19.27;17.87;;;4.40;99.90;;;;;;4893211;29;20327;-83
2022/11/12 04:04:14;;;;;;;18.93;17.70;;;4.50;99.90;;;;;;4901729;29;20696;-83
2022/11/12 04:10:04;;;;;;;19.10;17.80;;;4.40;99.90;;;;;;4897901;29;20223;-84
2022/11/12 04:22:02;;;;;;;20.00;18.50;;;4.40;99.90;;;;;;4899746;29;20673;-80
2022/11/12 04:27:51;;;;;;;19.77;18.47;;;4.30;99.90;;;;;;4895243;29;20215;-82
2022/11/12 04:30:36;;;;;;;19.47;18.07;;;4.40;99.90;;;;;;4893093;29;20707;-82
2022/11/12 04:33:21;;;;;;;19.50;18.10;;;4.40;99.90;;;;;;4899503;29;20219;-81
2022/11/12 04:36:07;;;;;;;19.67;18.17;;;4.30;99.90;;;;;;4894362;29;20322;-80
2022/11/12 04:38:53;;;;;;;19.23;17.83;;;4.40;99.90;;;;;;4899363;29;20208;-81
2022/11/12 04:47:46;;;;;;;18.97;17.57;;;4.20;99.90;;;;;;4895889;29;20207;-82
2022/11/12 04:50:31;;;;;;;19.20;17.90;;;4.20;99.90;;;;;;4897463;29;20239;-81
2022/11/12 04:53:17;;;;;;;19.60;18.10;;;4.20;99.90;;;;;;4895498;29;20703;-81
2022/11/12 04:56:04;;;;;;;20.70;18.83;;;4.20;99.90;;;;;;4891540;29;20211;-81
2022/11/12 04:58:49;;;;;;;18.87;17.57;;;4.20;99.90;;;;;;4898963;29;20631;-81
2022/11/12 05:01:35;;;;;;;20.40;19.00;;;4.20;99.90;;;;;;4903339;29;20254;-81
2022/11/12 05:04:20;;;;;;;19.70;18.30;;;4.20;99.90;;;;;;4902679;29;20285;-81
2022/11/12 05:07:06;;;;;;;20.17;18.67;;;4.20;99.90;;;;;;4903387;29;20793;-81
2022/11/12 05:09:52;;;;;;;20.23;18.73;;;4.30;99.90;;;;;;4902580;29;20314;-81
2022/11/12 05:12:39;;;;;;;20.57;18.97;;;4.20;99.90;;;;;;4896006;29;20227;-80
2022/11/12 05:15:25;;;;;;;19.07;17.73;;;4.30;99.90;;;;;;4902560;29;20223;-80
2022/11/12 05:18:10;;;;;;;20.63;19.03;;;4.30;99.90;;;;;;4901696;29;20574;-81
2022/11/12 05:20:56;;;;;;;20.10;18.63;;;4.40;99.90;;;;;;4899427;29;20306;-83
2022/11/12 05:23:41;;;;;;;19.60;18.20;;;4.40;99.90;;;;;;4893324;29;20207;-82
2022/11/12 05:26:28;;;;;;;19.10;17.73;;;4.40;99.90;;;;;;4899885;29;20204;-85
2022/11/12 05:29:14;;;;;;;18.47;17.17;;;4.30;99.90;;;;;;4899059;29;20703;-85
2022/11/12 05:32:01;;;;;;;18.57;17.27;;;4.30;99.90;;;;;;4897945;29;20275;-84
2022/11/12 05:34:46;;;;;;;17.77;16.57;;;4.20;99.90;;;;;;4894579;29;20673;-87
2022/11/12 05:37:32;;;;;;;20.10;18.60;;;4.20;99.90;;;;;;4891090;29;20295;-85
2022/11/12 05:40:17;;;;;;;19.87;18.37;;;4.20;99.90;;;;;;4898168;29;20439;-85
2022/11/12 05:43:03;;;;;;;19.37;17.97;;;4.30;99.90;;;;;;4894340;29;20256;-85
2022/11/12 05:45:49;;;;;;;20.10;18.60;;;4.30;99.90;;;;;;4893214;29;20210;-86
2022/11/12 05:48:35;;;;;;;19.20;17.90;;;4.40;99.90;;;;;;4897597;29;20227;-85
2022/11/12 05:51:21;;;;;;;18.97;17.57;;;4.40;99.90;;;;;;4899191;29;20235;-85
2022/11/12 05:54:06;;;;;;;19.87;18.47;;;4.40;99.90;;;;;;4899411;29;20264;-85
2022/11/12 05:56:52;;;;;;;19.83;18.33;;;4.40;99.90;;;;;;4899826;29;20692;-85
2022/11/12 05:59:38;;;;;;;19.17;17.77;;;4.40;99.90;;;;;;4897397;29;20293;-85
2022/11/12 06:02:25;;;;;;;19.87;18.37;;;4.30;99.90;;;;;;4899656;29;20235;-86
2022/11/12 06:05:10;;;;;;;20.10;18.53;;;4.40;99.90;;;;;;4899250;29;20216;-85
2022/11/12 06:07:56;;;;;;;19.87;18.23;;;4.30;99.90;;;;;;4899485;29;20345;-85
2022/11/12 06:10:41;;;;;;;21.00;18.97;;;4.30;99.90;;;;;;4895893;29;20279;-84
2022/11/12 06:13:27;;;;;;;18.57;17.37;;;4.30;99.90;;;;;;4899215;29;20313;-85
2022/11/12 06:16:13;;;;;;;18.87;17.57;;;4.20;99.90;;;;;;4899315;29;20476;-85
2022/11/12 06:19:00;;;;;;;20.40;18.90;;;4.20;99.90;;;;;;4899875;29;20219;-85
2022/11/12 06:21:45;;;;;;;19.13;17.80;;;4.20;99.90;;;;;;4893952;29;20731;-85
2022/11/12 06:24:31;;;;;;;20.40;18.60;;;4.20;99.90;;;;;;4892198;29;20609;-85
2022/11/12 06:27:16;;;;;;;19.80;18.20;;;4.20;99.90;;;;;;4899284;29;20299;-85
2022/11/12 06:30:02;;;;;;;19.73;18.23;;;4.20;99.90;;;;;;4899429;29;20220;-84
2022/11/12 06:32:47;;;;;;;19.13;17.83;;;4.10;99.90;;;;;;4899695;29;20363;-85
2022/11/12 06:35:34;;;;;;;19.00;17.70;;;4.10;99.90;;;;;;4893220;29;20239;-85
2022/11/12 06:38:20;;;;;;;19.50;18.10;;;4.10;99.90;;;;;;4899841;29;20211;-85
2022/11/12 06:41:07;;;;;;;19.67;18.30;;;4.20;99.90;;;;;;4899497;29;20235;-85
2022/11/12 06:43:52;;;;;;;19.07;17.77;;;4.30;99.90;;;;;;4899248;29;20335;-85
2022/11/12 06:46:38;;;;;;;20.10;18.60;;;4.30;99.90;;;;;;4895961;29;20256;-85
2022/11/12 06:49:23;;;;;;;19.33;17.93;;;4.40;99.90;;;;;;4902627;29;20202;-85
2022/11/12 06:52:10;;;;;;;19.00;17.70;;;4.40;99.90;;;;;;4900302;29;20231;-85
2022/11/12 06:54:56;;;;;;;19.93;18.20;;;4.30;99.90;;;;;;4898636;29;20236;-84
2022/11/12 06:57:41;;;;;;;18.27;17.00;;;4.20;99.90;;;;;;4897369;29;20203;-85
2022/11/12 07:00:27;;;;;;;19.17;17.77;;;4.20;99.90;;;;;;4901079;29;20290;-84
2022/11/12 07:03:15;;;;;;;18.60;17.10;;;4.10;99.90;;;;;;4905404;29;20244;-81
2022/11/12 07:06:07;;;;;;;17.60;16.50;;;4.20;99.90;;;;;;4905941;29;20749;-83
2022/11/12 07:08:53;;;;;;;18.07;16.87;;;4.30;99.90;;;;;;4902671;29;20215;-85
2022/11/12 07:11:39;;;;;;;17.40;16.30;;;4.40;99.90;;;;;;4895584;29;20724;-85
2022/11/12 07:14:24;;;;;;;18.07;16.67;;;4.40;99.90;;;;;;4902364;29;20287;-85
2022/11/12 07:17:10;;;;;;;18.90;17.30;;;4.40;99.90;;;;;;4901939;29;20214;-84
2022/11/12 07:19:55;;;;;;;17.00;15.90;;;4.40;99.90;;;;;;4902035;29;20211;-84
2022/11/12 07:22:41;;;;;;;17.50;16.03;;;4.40;99.90;;;;;;4895742;29;20227;-85
2022/11/12 07:25:27;;;;;;;17.47;16.37;;;4.40;99.90;;;;;;4901927;29;20700;-85
2022/11/12 07:28:13;;;;;;;18.23;17.03;;;4.50;99.90;;;;;;4900334;29;20325;-85
2022/11/12 07:31:01;;;;;;;17.60;16.40;;;4.50;99.90;;;;;;4898127;29;20386;-85
2022/11/12 07:33:48;;;;;;;18.13;16.83;;;4.50;99.90;;;;;;4894819;29;20203;-84
2022/11/12 07:36:33;;;;;;;17.47;16.30;;;4.70;99.90;;;;;;4901569;29;20746;-83
2022/11/12 07:39:19;;;;;;;17.17;15.97;;;4.80;99.90;;;;;;4901767;29;20667;-84
2022/11/12 07:42:06;;;;;;;17.17;16.07;;;4.80;99.90;;;;;;4897868;29;20243;-84
2022/11/12 07:44:52;;;;;;;17.17;16.07;;;4.90;99.90;;;;;;4901235;29;20628;-84
2022/11/12 07:47:37;;;;;;;16.80;15.70;;;5.00;99.90;;;;;;4898764;29;20215;-79
2022/11/12 07:50:23;;;;;;;17.10;15.90;;;5.10;99.90;;;;;;4901451;29;20223;-83
2022/11/12 07:53:09;;;;;;;16.30;15.20;;;5.10;99.90;;;;;;4901865;29;20588;-86
2022/11/12 07:55:55;;;;;;;17.63;16.33;;;5.10;99.90;;;;;;4901804;29;20212;-83
2022/11/12 07:58:42;;;;;;;16.23;15.23;;;5.10;99.90;;;;;;4897565;29;20303;-83
2022/11/12 08:01:30;;;;;;;15.67;14.67;;;5.20;99.90;;;;;;4896396;29;20283;-84
2022/11/12 08:04:15;;;;;;;15.40;14.40;;;5.30;99.90;;;;;;4902688;29;20434;-84
2022/11/12 08:07:01;;;;;;;15.73;14.63;;;5.40;99.90;;;;;;4900971;29;20211;-83
2022/11/12 08:09:47;;;;;;;15.37;14.37;;;5.50;99.90;;;;;;4900571;29;20219;-83
2022/11/12 08:12:32;;;;;;;15.20;14.30;;;5.70;99.90;;;;;;4900737;29;20596;-84
2022/11/12 08:15:19;;;;;;;14.83;13.93;;;5.70;99.90;;;;;;4900400;29;20211;-84
2022/11/12 08:18:05;;;;;;;14.47;13.67;;;5.90;99.90;;;;;;4900365;29;20692;-84
2022/11/12 08:20:50;;;;;;;15.37;14.37;;;6.00;99.90;;;;;;4900123;29;20318;-83
2022/11/12 08:23:36;;;;;;;15.07;13.90;;;6.10;99.90;;;;;;4894452;29;20226;-83
2022/11/12 08:26:21;;;;;;;15.07;14.17;;;6.10;99.90;;;;;;4900586;29;20213;-83
2022/11/12 08:29:07;;;;;;;15.17;14.17;;;6.20;99.90;;;;;;4899579;29;20212;-82
2022/11/12 08:31:54;;;;;;;15.20;14.20;;;6.10;99.90;;;;;;4899825;29;20288;-82
2022/11/12 08:34:40;;;;;;;15.47;14.40;;;6.20;99.90;;;;;;4893781;29;20705;-82
2022/11/12 08:37:26;;;;;;;14.43;13.60;;;6.10;99.90;;;;;;4899951;29;20329;-84
2022/11/12 08:40:12;;;;;;;14.27;13.37;;;6.10;99.90;;;;;;4899878;29;20228;-84
2022/11/12 08:42:59;;;;;;;14.73;13.73;;;6.20;99.90;;;;;;4899647;29;20209;-82
2022/11/12 08:45:44;;;;;;;14.63;13.73;;;6.30;99.90;;;;;;4894449;29;20220;-83
2022/11/12 08:48:32;;;;;;;15.00;14.00;;;6.40;99.90;;;;;;4892431;29;20357;-83
2022/11/12 08:51:18;;;;;;;14.43;13.53;;;6.50;99.90;;;;;;4899566;29;20268;-82
2022/11/12 08:54:04;;;;;;;13.20;12.40;;;6.50;99.90;;;;;;4899662;29;20309;-83
2022/11/12 08:56:49;;;;;;;14.93;14.03;;;6.70;99.90;;;;;;4894603;29;20285;-84
2022/11/12 08:59:35;;;;;;;9.83;9.10;;;6.90;99.90;;;;;;4896152;29;20215;-84
2022/11/12 09:02:21;;;;;;;6.67;6.17;;;7.00;99.90;;;;;;4898424;29;20258;-83
2022/11/12 09:05:08;;;;;;;5.37;4.87;;;7.10;99.90;;;;;;4900472;29;20226;-81
2022/11/12 09:07:57;;;;;;;4.90;4.50;;;7.10;99.90;;;;;;4894553;29;20238;-85
2022/11/12 09:10:43;;;;;;;6.60;6.10;;;7.10;99.90;;;;;;4894777;29;20251;-86
2022/11/12 09:13:29;;;;;;;5.67;5.03;;;7.00;99.90;;;;;;4891882;29;20222;-85
2022/11/12 09:16:14;;;;;;;5.20;4.70;;;7.10;99.90;;;;;;4899969;29;20222;-85
2022/11/12 09:19:00;;;;;;;9.57;8.77;;;7.20;99.90;;;;;;4899278;29;20588;-85
2022/11/12 09:21:47;;;;;;;11.00;9.93;;;7.20;99.90;;;;;;4893636;29;20231;-85
2022/11/12 09:24:32;;;;;;;7.63;5.70;;;7.30;99.90;;;;;;4895913;29;20226;-85
2022/11/12 09:27:18;;;;;;;5.83;4.73;;;7.30;99.90;;;;;;4898843;29;20267;-85
2022/11/12 09:30:05;;;;;;;7.33;6.40;;;7.30;99.90;;;;;;4891645;29;20230;-86
2022/11/12 09:32:56;;;;;;;11.00;6.17;;;7.30;99.90;;;;;;4893584;29;20284;-85
2022/11/12 09:35:42;;;;;;;13.80;6.50;;;7.40;99.90;;;;;;4893674;29;20576;-82
2022/11/12 09:38:29;;;;;;;15.33;6.80;;;7.40;99.90;;;;;;4891536;29;20214;-85
2022/11/12 09:41:21;;;;;;;10.73;5.67;;;7.50;99.90;;;;;;4896428;29;20230;-85
2022/11/12 09:44:11;;;;;;;7.17;5.47;;;7.60;99.90;;;;;;4901188;29;20593;-85
2022/11/12 09:47:02;;;;;;;9.40;8.50;;;7.70;99.90;;;;;;4896414;29;20215;-83
2022/11/12 09:49:55;;;;;;;6.03;5.43;;;7.80;99.90;;;;;;4888842;29;20218;-84
2022/11/12 09:52:43;;;;;;;5.90;5.30;;;7.80;99.90;;;;;;4895904;29;20219;-85
2022/11/12 09:55:34;;;;;;;5.27;4.77;;;7.80;99.90;;;;;;4898494;29;20620;-84
2022/11/12 09:58:20;;;;;;;6.53;5.23;;;8.00;99.90;;;;;;4902251;29;20703;-84
2022/11/12 10:01:14;;;;;;;11.83;11.00;;;8.10;99.90;;;;;;4897675;29;20318;-85
2022/11/12 10:04:22;;;;;;;8.17;7.53;;;8.30;99.90;;;;;;4897997;29;20215;-85
2022/11/12 10:07:16;;;;;;;10.70;9.97;;;8.40;99.90;;;;;;4896744;29;20211;-84
2022/11/12 10:10:10;;;;;;;5.73;5.17;;;8.50;99.90;;;;;;4894999;29;20207;-85
2022/11/12 10:13:11;;;;;;;12.60;11.70;;;8.60;99.90;;;;;;4898163;29;20220;-84
2022/11/12 10:19:32;;;;;;;5.57;4.93;;;8.70;99.90;;;;;;4897001;29;20232;-84
2022/11/12 10:22:32;;;;;;;5.60;5.10;;;8.70;99.90;;;;;;4903312;29;20227;-84
2022/11/12 10:25:19;;;;;;;13.67;12.87;;;8.70;99.90;;;;;;4904555;29;20339;-84
2022/11/12 10:28:19;;;;;;;13.73;12.83;;;8.70;99.90;;;;;;4905763;29;20211;-83
2022/11/12 10:31:12;;;;;;;9.65;8.95;;;8.70;99.90;;;;;;4904128;29;20459;-84
2022/11/12 10:34:11;;;;;;;6.37;5.77;;;8.70;99.90;;;;;;4904558;29;20331;-84
2022/11/12 10:37:01;;;;;;;13.23;12.43;;;8.80;99.90;;;;;;4900466;29;20215;-84
2022/11/12 10:39:46;;;;;;;15.47;14.50;;;8.80;99.90;;;;;;4899214;29;20207;-85
2022/11/12 10:42:32;;;;;;;14.60;13.70;;;9.00;99.90;;;;;;4897046;29;20268;-84
2022/11/12 10:45:22;;;;;;;16.50;15.50;;;9.00;99.90;;;;;;4904706;29;20531;-84
2022/11/12 10:48:22;;;;;;;14.20;13.20;;;9.00;99.90;;;;;;4905197;29;20215;-85
2022/11/12 10:51:20;;;;;;;15.83;14.77;;;9.00;99.90;;;;;;4903750;29;20227;-84
2022/11/12 10:54:21;;;;;;;15.77;14.67;;;9.10;99.90;;;;;;4904137;29;20227;-84
2022/11/12 10:57:20;;;;;;;15.20;14.27;;;9.10;99.90;;;;;;4903642;29;20230;-84
2022/11/12 11:00:18;;;;;;;16.00;15.00;;;9.00;99.90;;;;;;4903038;29;20759;-83
2022/11/12 11:03:07;;;;;;;15.10;14.10;;;9.00;99.90;;;;;;4901636;29;20223;-84
2022/11/12 11:05:56;;;;;;;14.57;13.67;;;9.00;99.90;;;;;;4899634;29;20212;-83
2022/11/12 11:08:43;;;;;;;13.67;12.77;;;9.00;99.90;;;;;;4902830;29;20219;-83
2022/11/12 11:11:30;;;;;;;14.17;13.23;;;9.10;99.90;;;;;;4898401;29;20817;-83
2022/11/12 11:14:31;;;;;;;17.60;16.53;;;9.20;99.90;;;;;;4902641;29;20296;-83
2022/11/12 11:17:18;;;;;;;14.17;13.37;;;9.30;99.90;;;;;;4903797;29;20355;-83
2022/11/12 11:20:10;;;;;;;12.60;11.80;;;9.30;99.90;;;;;;4903260;29;20224;-83
2022/11/12 11:22:59;;;;;;;13.70;12.80;;;9.40;99.90;;;;;;4904567;29;20199;-83
2022/11/12 11:25:47;;;;;;;14.27;13.37;;;9.50;99.90;;;;;;4902255;29;20209;-83
2022/11/12 11:28:38;;;;;;;14.37;13.47;;;9.40;99.90;;;;;;4902582;29;20259;-83
2022/11/12 11:31:36;;;;;;;15.10;14.20;;;9.40;99.90;;;;;;4904067;29;20242;-83
2022/11/12 11:34:33;;;;;;;14.67;13.67;;;9.50;99.90;;;;;;4901329;29;20231;-83
2022/11/12 11:37:26;;;;;;;11.53;10.63;;;9.40;99.90;;;;;;4901371;29;20207;-83
2022/11/12 11:40:20;;;;;;;13.73;12.83;;;9.50;99.90;;;;;;4900776;29;20204;-83
2022/11/12 11:43:20;;;;;;;8.20;7.40;;;9.60;99.90;;;;;;4900883;29;20207;-83
2022/11/12 11:46:12;;;;;;;9.37;8.67;;;9.60;99.90;;;;;;4901233;29;20207;-83
2022/11/12 11:49:21;;;;;;;13.83;12.97;;;9.70;99.90;;;;;;4900956;29;20241;-84
2022/11/12 11:52:18;;;;;;;10.57;9.80;;;9.80;99.90;;;;;;4898087;29;20236;-82
2022/11/12 11:55:26;;;;;;;9.13;8.43;;;9.80;99.90;;;;;;4900744;29;20218;-83
2022/11/12 11:58:33;;;;;;;8.10;7.50;;;9.90;99.90;;;;;;4902143;29;20280;-84
2022/11/12 12:01:25;;;;;;;5.97;5.43;;;9.90;99.90;;;;;;4901650;29;20272;-83
2022/11/12 12:04:33;;;;;;;6.10;5.50;;;9.90;99.90;;;;;;4901649;29;20218;-83
2022/11/12 12:07:31;;;;;;;15.87;14.87;;;9.90;99.90;;;;;;4901896;29;20316;-84
2022/11/12 12:10:24;;;;;;;14.30;13.40;;;10.00;99.90;;;;;;4901145;29;20751;-82
2022/11/12 12:13:19;;;;;;;14.70;13.80;;;10.10;99.90;;;;;;4901720;29;20292;-83
2022/11/12 12:16:23;;;;;;;14.70;13.80;;;10.10;99.90;;;;;;4901085;29;20729;-83
2022/11/12 12:19:19;;;;;;;15.73;14.77;;;10.20;99.90;;;;;;4900779;29;20229;-83
2022/11/12 12:22:09;;;;;;;14.70;13.70;;;10.20;99.90;;;;;;4899130;29;20243;-83
2022/11/12 12:24:58;;;;;;;13.60;12.80;;;10.20;99.90;;;;;;4896907;29;20350;-82
2022/11/12 12:27:53;;;;;;;13.60;12.80;;;10.20;99.90;;;;;;4900922;29;20208;-83
2022/11/12 12:30:44;;;;;;;13.40;12.50;;;10.20;99.90;;;;;;4903100;29;20756;-84
2022/11/12 12:33:33;;;;;;;13.27;12.37;;;10.30;99.90;;;;;;4899583;29;20220;-83
2022/11/12 12:36:24;;;;;;;12.90;12.10;;;10.30;99.90;;;;;;4900185;29;20216;-84
2022/11/12 12:39:14;;;;;;;12.57;11.77;;;10.40;99.90;;;;;;4899888;29;20252;-83
2022/11/12 12:42:03;;;;;;;13.70;12.90;;;10.50;99.90;;;;;;4897677;29;20250;-83
2022/11/12 12:45:00;;;;;;;14.80;13.90;;;10.50;99.90;;;;;;4895341;29;20763;-83
2022/11/12 12:47:47;;;;;;;14.00;13.10;;;10.60;99.90;;;;;;4896421;29;20566;-83
2022/11/12 12:50:33;;;;;;;14.23;13.33;;;10.70;99.90;;;;;;4900221;29;20208;-83
2022/11/12 12:53:32;;;;;;;13.30;12.47;;;10.80;99.90;;;;;;4899105;29;20311;-83
2022/11/12 12:56:48;;;;;;;13.47;12.67;;;10.80;99.90;;;;;;4900019;29;20356;-83
2022/11/12 12:59:33;;;;;;;15.13;14.13;;;10.90;99.90;;;;;;4890862;29;20217;-83
2022/11/12 13:02:23;;;;;;;14.73;13.83;;;11.00;99.90;;;;;;4899242;29;20873;-83
2022/11/12 13:05:32;;;;;;;5.40;4.90;;;11.00;99.90;;;;;;4900462;29;20209;-84
2022/11/12 13:08:22;;;;;;;11.37;10.57;;;11.00;99.90;;;;;;4898723;29;20237;-84
2022/11/12 13:11:08;;;;;;;9.60;8.93;;;11.10;99.90;;;;;;4902653;29;20284;-83
2022/11/12 13:13:53;;;;;;;10.57;9.77;;;11.10;99.90;;;;;;4901233;29;20302;-83
2022/11/12 13:17:04;;;;;;;9.63;8.93;;;11.20;99.90;;;;;;4894584;29;20321;-82
2022/11/12 13:20:32;;;;;;;5.33;4.83;;;11.20;99.90;;;;;;4893621;29;20218;-84
2022/11/12 13:24:06;;;;;;;5.60;5.00;;;11.20;99.90;;;;;;4882654;29;20866;-82
2022/11/12 13:26:54;;;;;;;9.30;8.50;;;11.20;99.90;;;;;;4901751;29;20262;-81
2022/11/12 13:29:42;;;;;;;14.20;13.30;;;11.20;99.90;;;;;;4898445;29;20710;-83
2022/11/12 13:32:35;;;;;;;8.03;7.33;;;11.20;99.90;;;;;;4893370;29;20237;-84
2022/11/12 13:35:26;;;;;;;8.17;7.47;;;11.20;99.90;;;;;;4898304;29;20338;-83
2022/11/12 13:38:14;;;;;;;9.43;8.53;;;11.20;99.90;;;;;;4898681;29;20212;-83
2022/11/12 13:41:11;;;;;;;7.80;7.10;;;11.20;99.90;;;;;;4898598;29;20240;-83
2022/11/12 13:43:57;;;;;;;5.87;5.27;;;11.20;99.90;;;;;;4895022;29;20221;-82
2022/11/12 13:46:44;;;;;;;13.83;12.93;;;11.20;99.90;;;;;;4897612;29;20213;-82
2022/11/12 13:49:30;;;;;;;13.17;12.27;;;11.10;99.90;;;;;;4892581;29;20579;-82
2022/11/12 13:52:18;;;;;;;13.37;12.47;;;11.10;99.90;;;;;;4897204;29;20726;-83
2022/11/12 13:55:06;;;;;;;13.30;12.40;;;11.10;99.90;;;;;;4897890;29;20220;-84
2022/11/12 13:57:54;;;;;;;14.20;13.20;;;11.10;99.90;;;;;;4899031;29;20576;-83
2022/11/12 14:00:40;;;;;;;8.70;7.83;;;11.00;99.90;;;;;;4898436;29;20224;-84
2022/11/12 14:03:28;;;;;;;13.47;12.57;;;11.00;99.90;;;;;;4898148;29;20217;-83
2022/11/12 14:06:22;;;;;;;12.63;11.83;;;11.00;99.90;;;;;;4898519;29;20221;-83
2022/11/12 14:09:35;;;;;;;13.13;12.17;;;11.00;99.90;;;;;;4903597;29;20221;-85
2022/11/12 14:12:38;;;;;;;13.03;12.13;;;11.00;99.90;;;;;;4899420;29;20228;-82
2022/11/12 14:15:40;;;;;;;13.10;12.30;;;10.80;99.90;;;;;;4900114;29;20300;-83
2022/11/12 14:18:39;;;;;;;13.00;12.10;;;10.80;99.90;;;;;;4897334;29;20224;-83
2022/11/12 14:21:25;;;;;;;13.03;12.13;;;10.80;99.90;;;;;;4887198;29;20255;-84
2022/11/12 14:24:12;;;;;;;13.10;12.17;;;10.70;99.90;;;;;;4884263;29;20212;-83
2022/11/12 14:26:58;;;;;;;12.87;11.90;;;10.70;99.90;;;;;;4885626;29;20220;-83
2022/11/12 14:29:43;;;;;;;13.27;12.17;;;10.70;99.90;;;;;;4885050;29;20212;-83
2022/11/12 14:32:36;;;;;;;13.87;12.87;;;10.70;99.90;;;;;;4886493;29;20263;-83
2022/11/12 14:35:31;;;;;;;13.63;12.63;;;10.60;99.90;;;;;;4899107;29;20293;-83
2022/11/12 14:38:20;;;;;;;13.33;12.33;;;10.60;99.90;;;;;;4899758;29;20213;-83
2022/11/12 14:41:09;;;;;;;13.37;12.37;;;10.50;99.90;;;;;;4896630;29;20232;-83
2022/11/12 14:43:57;;;;;;;14.10;12.90;;;10.50;99.90;;;;;;4899619;29;20255;-85
2022/11/12 14:46:50;;;;;;;14.17;12.97;;;10.40;99.90;;;;;;4887469;29;20624;-83
2022/11/12 14:49:39;;;;;;;13.43;12.30;;;10.40;99.90;;;;;;4891334;29;20260;-84
2022/11/12 14:52:31;;;;;;;13.40;12.40;;;10.40;99.90;;;;;;4901030;29;20275;-83
2022/11/12 14:55:20;;;;;;;13.40;12.40;;;10.40;99.90;;;;;;4897799;29;20229;-83
2022/11/12 14:58:05;;;;;;;13.30;12.30;;;10.30;99.90;;;;;;4898851;29;20212;-82
2022/11/12 15:00:53;;;;;;;13.77;12.77;;;10.30;99.90;;;;;;4897825;29;20236;-82
2022/11/12 15:03:38;;;;;;;13.43;12.53;;;10.20;99.90;;;;;;4890130;29;20580;-82
2022/11/12 15:06:31;;;;;;;13.97;12.97;;;10.20;99.90;;;;;;4898486;29;20252;-84
2022/11/12 15:09:20;;;;;;;14.63;13.50;;;10.10;99.90;;;;;;4901374;29;20196;-83
2022/11/12 15:12:08;;;;;;;15.43;14.23;;;10.00;99.90;;;;;;4902153;29;20599;-80
2022/11/12 15:15:07;;;;;;;14.97;13.77;;;9.90;99.90;;;;;;4898403;29;20211;-87
2022/11/12 15:17:57;;;;;;;14.60;13.30;;;9.80;99.90;;;;;;4901731;29;20592;-84
2022/11/12 15:20:42;;;;;;;15.40;14.10;;;9.80;99.90;;;;;;4896724;29;20212;-83
2022/11/12 15:23:29;;;;;;;15.53;14.33;;;9.70;99.90;;;;;;4894346;29;20207;-83
2022/11/12 15:26:23;;;;;;;14.80;13.70;;;9.60;99.90;;;;;;4901452;29;20215;-84
2022/11/12 15:29:20;;;;;;;15.40;14.10;;;9.50;99.90;;;;;;4902074;29;20215;-84
2022/11/12 15:32:30;;;;;;;14.67;13.57;;;9.40;99.90;;;;;;4901409;29;20223;-84
2022/11/12 15:35:36;;;;;;;14.97;13.87;;;9.30;99.90;;;;;;4900273;29;20211;-83
2022/11/12 15:38:26;;;;;;;14.57;13.47;;;9.20;99.90;;;;;;4900764;29;20219;-84
2022/11/12 15:41:23;;;;;;;15.23;14.03;;;9.10;99.90;;;;;;4899691;29;20232;-84
2022/11/12 15:44:09;;;;;;;16.03;14.63;;;9.10;99.90;;;;;;4901911;29;20214;-84
2022/11/12 15:46:54;;;;;;;16.40;15.10;;;9.00;99.90;;;;;;4901937;29;20208;-83
2022/11/12 15:49:48;;;;;;;16.47;15.03;;;8.90;99.90;;;;;;4901385;29;20207;-84
2022/11/12 15:52:33;;;;;;;17.40;15.97;;;8.80;99.90;;;;;;4901768;29;20239;-84
2022/11/12 15:55:19;;;;;;;16.97;15.57;;;8.70;99.90;;;;;;4901560;29;20219;-84
2022/11/12 15:58:07;;;;;;;16.50;14.90;;;8.60;99.90;;;;;;4901816;29;20221;-84
2022/11/12 16:00:52;;;;;;;16.83;15.43;;;8.50;99.90;;;;;;4900574;29;20368;-83
2022/11/12 16:03:38;;;;;;;17.30;15.70;;;8.40;99.90;;;;;;4893758;29;20282;-83
2022/11/12 16:06:24;;;;;;;15.53;14.23;;;8.30;99.90;;;;;;4901096;29;20333;-79
2022/11/12 16:09:10;;;;;;;15.43;14.13;;;8.30;99.90;;;;;;4900984;29;20216;-81
2022/11/12 16:11:56;;;;;;;16.17;14.93;;;8.20;99.90;;;;;;4900858;29;20235;-81
2022/11/12 16:14:43;;;;;;;16.10;14.90;;;8.10;99.90;;;;;;4895995;29;20215;-83
2022/11/12 16:17:29;;;;;;;16.13;14.83;;;8.00;99.90;;;;;;4891587;29;20211;-84
2022/11/12 16:20:17;;;;;;;16.13;14.70;;;7.90;99.90;;;;;;4899831;29;20699;-84
2022/11/12 16:23:02;;;;;;;15.50;14.27;;;7.80;99.90;;;;;;4900399;29;20212;-84
2022/11/12 16:25:48;;;;;;;15.77;14.57;;;7.70;99.90;;;;;;4899825;29;20304;-83
2022/11/12 16:28:35;;;;;;;17.40;16.00;;;7.60;99.90;;;;;;4894054;29;20220;-81
2022/11/12 16:31:22;;;;;;;16.50;15.20;;;7.60;99.90;;;;;;4901113;29;20267;-83
2022/11/12 16:34:07;;;;;;;16.23;14.93;;;7.50;99.90;;;;;;4900508;29;20215;-83
2022/11/12 16:36:53;;;;;;;17.40;16.00;;;7.40;99.90;;;;;;4902232;29;20218;-81
2022/11/12 16:39:38;;;;;;;16.97;15.57;;;7.40;99.90;;;;;;4894187;29;20295;-83
2022/11/12 16:42:24;;;;;;;19.00;17.60;;;7.30;99.90;;;;;;4900115;29;20233;-84
2022/11/12 16:45:09;;;;;;;19.27;17.33;;;7.20;99.90;;;;;;4897387;29;20208;-83
2022/11/12 16:47:57;;;;;;;20.57;18.70;;;7.10;99.90;;;;;;4899788;29;20262;-82
2022/11/12 16:50:42;;;;;;;20.60;18.77;;;7.00;99.90;;;;;;4894036;29;20211;-84
2022/11/12 16:53:28;;;;;;;19.70;18.00;;;7.00;99.90;;;;;;4901356;29;20313;-79
2022/11/12 16:56:16;;;;;;;20.07;18.37;;;6.90;99.90;;;;;;4905351;29;20751;-82
2022/11/12 16:59:02;;;;;;;20.13;18.33;;;6.80;99.90;;;;;;4905354;29;20218;-79
2022/11/12 17:01:47;;;;;;;19.73;18.23;;;6.80;99.90;;;;;;4904009;29;20243;-80
2022/11/12 17:04:34;;;;;;;21.40;19.47;;;6.70;99.90;;;;;;4897372;29;20254;-83
2022/11/12 17:07:20;;;;;;;20.37;18.70;;;6.70;99.90;;;;;;4900875;29;20298;-83
2022/11/12 17:10:06;;;;;;;19.87;18.17;;;6.60;99.90;;;;;;4901755;29;20216;-82
2022/11/12 17:12:52;;;;;;;19.30;17.80;;;6.50;99.90;;;;;;4899994;29;20606;-83
2022/11/12 17:15:38;;;;;;;20.97;19.27;;;6.40;99.90;;;;;;4894319;29;20215;-83
2022/11/12 17:18:23;;;;;;;19.80;18.20;;;6.40;99.90;;;;;;4900561;29;20228;-82
2022/11/12 17:21:12;;;;;;;21.03;19.20;;;6.30;99.90;;;;;;4884570;29;20738;-83
2022/11/12 17:23:58;;;;;;;18.70;17.23;;;6.20;99.90;;;;;;4899847;29;20210;-83
2022/11/12 17:26:44;;;;;;;19.17;17.67;;;6.20;99.90;;;;;;4899596;29;20252;-82
2022/11/12 17:29:29;;;;;;;19.60;18.00;;;6.10;99.90;;;;;;4892681;29;20228;-83
2022/11/12 17:32:15;;;;;;;21.00;19.30;;;6.10;99.90;;;;;;4899583;29;20761;-83
2022/11/12 17:35:00;;;;;;;21.93;19.87;;;6.10;99.90;;;;;;4899806;29;20225;-83
2022/11/12 17:37:47;;;;;;;21.43;19.60;;;6.00;99.90;;;;;;4899814;29;20247;-84
2022/11/12 17:40:33;;;;;;;21.87;20.07;;;6.00;99.90;;;;;;4899928;29;20221;-83
2022/11/12 17:43:18;;;;;;;21.17;19.40;;;6.00;99.90;;;;;;4900502;29;20216;-83
2022/11/12 17:46:05;;;;;;;20.70;18.90;;;6.00;99.90;;;;;;4896532;29;20211;-83
2022/11/12 17:48:50;;;;;;;22.03;20.23;;;6.00;99.90;;;;;;4899406;29;20208;-83
2022/11/12 17:51:35;;;;;;;22.57;20.67;;;5.90;99.90;;;;;;4892996;29;20292;-83
2022/11/12 17:54:22;;;;;;;22.80;20.57;;;5.90;99.90;;;;;;4899091;29;20231;-83